sensor_id;sensor_type;location;lat;lon;timestamp;temperature;humidity
8402;DHT22;4238;48.404;9.498;2022-12-18T00:00:47;-7.00;99.90
8402;DHT22;4238;48.404;9.498;2022-12-18T00:03:14;-7.00;99.90
8402;DHT22;4238;48.404;9.498;2022-12-18T00:05:48;-6.90;99.90
8402;DHT22;4238;48.404;9.498;2022-12-18T00:08:15;-6.90;99.90
8402;DHT22;4238;48.404;9.498;2022-12-18T00:10:43;-6.90;99.90
8402;DHT22;4238;48.404;9.498;2022-12-18T00:13:12;-6.90;99.90
8402;DHT22;4238;48.404;9.498;2022-12-18T00:15:40;-6.90;99.90
8402;DHT22;4238;48.404;9.498;2022-12-18T00:18:07;-6.80;99.90
8402;DHT22;4238;48.404;9.498;2022-12-18T00:20:36;-6.70;99.90
8402;DHT22;4238;48.404;9.498;2022-12-18T00:23:03;-6.60;99.90
8402;DHT22;4238;48.404;9.498;2022-12-18T00:25:29;-6.60;99.90
8402;DHT22;4238;48.404;9.498;2022-12-18T00:27:58;-6.50;99.90
8402;DHT22;4238;48.404;9.498;2022-12-18T00:30:27;-6.40;99.90
8402;DHT22;4238;48.404;9.498;2022-12-18T00:32:54;-6.30;99.90
8402;DHT22;4238;48.404;9.498;2022-12-18T00:35:21;-6.20;99.90
8402;DHT22;4238;48.404;9.498;2022-12-18T00:37:48;-6.20;99.90
8402;DHT22;4238;48.404;9.498;2022-12-18T00:40:15;-6.30;99.90
8402;DHT22;4238;48.404;9.498;2022-12-18T00:42:42;-6.30;99.90
8402;DHT22;4238;48.404;9.498;2022-12-18T00:45:29;-6.30;99.90
8402;DHT22;4238;48.404;9.498;2022-12-18T00:47:57;-6.30;99.90
8402;DHT22;4238;48.404;9.498;2022-12-18T00:50:25;-6.20;99.90
8402;DHT22;4238;48.404;9.498;2022-12-18T00:52:52;-6.20;99.90
8402;DHT22;4238;48.404;9.498;2022-12-18T00:55:19;-6.20;99.90
8402;DHT22;4238;48.404;9.498;2022-12-18T00:57:46;-6.20;99.90
8402;DHT22;4238;48.404;9.498;2022-12-18T01:00:14;-6.30;99.90
8402;DHT22;4238;48.404;9.498;2022-12-18T01:02:43;-6.30;99.90
8402;DHT22;4238;48.404;9.498;2022-12-18T01:05:14;-6.10;99.90
8402;DHT22;4238;48.404;9.498;2022-12-18T01:07:41;-6.10;99.90
8402;DHT22;4238;48.404;9.498;2022-12-18T01:10:10;-6.20;99.90
8402;DHT22;4238;48.404;9.498;2022-12-18T01:12:38;-6.20;99.90
8402;DHT22;4238;48.404;9.498;2022-12-18T01:15:06;-6.20;99.90
8402;DHT22;4238;48.404;9.498;2022-12-18T01:17:33;-6.10;99.90
8402;DHT22;4238;48.404;9.498;2022-12-18T01:20:02;-6.10;99.90
8402;DHT22;4238;48.404;9.498;2022-12-18T01:22:29;-6.20;99.90
8402;DHT22;4238;48.404;9.498;2022-12-18T01:24:56;-6.00;99.90
8402;DHT22;4238;48.404;9.498;2022-12-18T01:27:23;-6.00;99.90
8402;DHT22;4238;48.404;9.498;2022-12-18T01:29:49;-5.90;99.90
8402;DHT22;4238;48.404;9.498;2022-12-18T01:32:16;-5.80;99.90
8402;DHT22;4238;48.404;9.498;2022-12-18T01:34:43;-6.00;96.00
8402;DHT22;4238;48.404;9.498;2022-12-18T01:37:12;-5.90;99.90
8402;DHT22;4238;48.404;9.498;2022-12-18T01:39:38;-5.90;99.90
8402;DHT22;4238;48.404;9.498;2022-12-18T01:42:10;-5.90;99.90
8402;DHT22;4238;48.404;9.498;2022-12-18T01:45:06;-5.90;98.90
8402;DHT22;4238;48.404;9.498;2022-12-18T01:47:36;-5.80;99.00
8402;DHT22;4238;48.404;9.498;2022-12-18T01:50:08;-5.90;98.90
8402;DHT22;4238;48.404;9.498;2022-12-18T01:52:40;-6.00;99.90
8402;DHT22;4238;48.404;9.498;2022-12-18T01:55:09;-6.00;99.90
8402;DHT22;4238;48.404;9.498;2022-12-18T01:57:37;-6.00;99.90
8402;DHT22;4238;48.404;9.498;2022-12-18T02:00:07;-6.10;99.90
8402;DHT22;4238;48.404;9.498;2022-12-18T02:02:34;-6.00;99.90
8402;DHT22;4238;48.404;9.498;2022-12-18T02:05:02;-6.10;99.90
8402;DHT22;4238;48.404;9.498;2022-12-18T02:07:37;-6.00;99.90
8402;DHT22;4238;48.404;9.498;2022-12-18T02:10:13;-5.90;99.90
8402;DHT22;4238;48.404;9.498;2022-12-18T02:12:47;-5.80;99.90
8402;DHT22;4238;48.404;9.498;2022-12-18T02:15:22;-5.90;99.80
8402;DHT22;4238;48.404;9.498;2022-12-18T02:17:56;-6.00;99.90
8402;DHT22;4238;48.404;9.498;2022-12-18T02:20:30;-6.00;99.90
8402;DHT22;4238;48.404;9.498;2022-12-18T02:23:08;-5.90;99.90
8402;DHT22;4238;48.404;9.498;2022-12-18T02:25:59;-5.90;99.90
8402;DHT22;4238;48.404;9.498;2022-12-18T02:28:32;-6.10;99.90
8402;DHT22;4238;48.404;9.498;2022-12-18T02:31:03;-6.10;99.90
8402;DHT22;4238;48.404;9.498;2022-12-18T02:33:32;-6.00;99.90
8402;DHT22;4238;48.404;9.498;2022-12-18T02:36:01;-5.90;99.90
8402;DHT22;4238;48.404;9.498;2022-12-18T02:38:30;-6.00;99.90
8402;DHT22;4238;48.404;9.498;2022-12-18T02:40:57;-6.10;99.90
8402;DHT22;4238;48.404;9.498;2022-12-18T02:43:26;-6.20;99.90
8402;DHT22;4238;48.404;9.498;2022-12-18T02:45:55;-6.10;99.90
8402;DHT22;4238;48.404;9.498;2022-12-18T02:48:24;-6.00;99.90
8402;DHT22;4238;48.404;9.498;2022-12-18T02:50:58;-6.00;99.90
8402;DHT22;4238;48.404;9.498;2022-12-18T02:53:42;-6.10;99.90
8402;DHT22;4238;48.404;9.498;2022-12-18T02:56:15;-6.00;99.90
8402;DHT22;4238;48.404;9.498;2022-12-18T02:58:47;-6.00;99.90
8402;DHT22;4238;48.404;9.498;2022-12-18T03:01:21;-6.00;99.90
8402;DHT22;4238;48.404;9.498;2022-12-18T03:03:54;-5.80;99.90
8402;DHT22;4238;48.404;9.498;2022-12-18T03:06:26;-6.00;99.90
8402;DHT22;4238;48.404;9.498;2022-12-18T03:08:57;-5.90;99.90
8402;DHT22;4238;48.404;9.498;2022-12-18T03:11:26;-5.80;99.90
8402;DHT22;4238;48.404;9.498;2022-12-18T03:14:11;-5.80;99.90
8402;DHT22;4238;48.404;9.498;2022-12-18T03:16:41;-5.80;99.90
8402;DHT22;4238;48.404;9.498;2022-12-18T03:19:11;-5.80;99.90
8402;DHT22;4238;48.404;9.498;2022-12-18T03:21:45;-5.70;99.90
8402;DHT22;4238;48.404;9.498;2022-12-18T03:24:15;-5.70;99.90
8402;DHT22;4238;48.404;9.498;2022-12-18T03:26:45;-5.70;99.90
8402;DHT22;4238;48.404;9.498;2022-12-18T03:29:20;-5.70;99.90
8402;DHT22;4238;48.404;9.498;2022-12-18T03:31:51;-5.70;99.90
8402;DHT22;4238;48.404;9.498;2022-12-18T03:34:23;-5.70;99.90
8402;DHT22;4238;48.404;9.498;2022-12-18T03:36:51;-6.00;99.90
8402;DHT22;4238;48.404;9.498;2022-12-18T03:39:19;-6.00;99.90
8402;DHT22;4238;48.404;9.498;2022-12-18T03:41:51;-6.10;99.90
8402;DHT22;4238;48.404;9.498;2022-12-18T03:44:23;-6.00;99.90
8402;DHT22;4238;48.404;9.498;2022-12-18T03:46:56;-6.00;99.90
8402;DHT22;4238;48.404;9.498;2022-12-18T03:49:29;-6.10;99.90
8402;DHT22;4238;48.404;9.498;2022-12-18T03:52:02;-6.20;99.90
8402;DHT22;4238;48.404;9.498;2022-12-18T03:54:31;-6.30;99.90
8402;DHT22;4238;48.404;9.498;2022-12-18T03:57:06;-6.20;99.90
8402;DHT22;4238;48.404;9.498;2022-12-18T03:59:35;-6.10;99.90
8402;DHT22;4238;48.404;9.498;2022-12-18T04:02:05;-6.10;99.90
8402;DHT22;4238;48.404;9.498;2022-12-18T04:04:34;-6.10;99.90
8402;DHT22;4238;48.404;9.498;2022-12-18T04:07:02;-6.00;99.90
8402;DHT22;4238;48.404;9.498;2022-12-18T04:09:30;-6.10;99.90
8402;DHT22;4238;48.404;9.498;2022-12-18T04:11:58;-6.00;99.90
8402;DHT22;4238;48.404;9.498;2022-12-18T04:14:25;-6.10;99.90
8402;DHT22;4238;48.404;9.498;2022-12-18T04:16:53;-6.10;99.90
8402;DHT22;4238;48.404;9.498;2022-12-18T04:19:20;-6.00;99.90
8402;DHT22;4238;48.404;9.498;2022-12-18T04:21:47;-6.10;99.90
8402;DHT22;4238;48.404;9.498;2022-12-18T04:24:14;-6.10;99.90
8402;DHT22;4238;48.404;9.498;2022-12-18T04:26:41;-6.20;99.90
8402;DHT22;4238;48.404;9.498;2022-12-18T04:29:08;-6.00;99.90
8402;DHT22;4238;48.404;9.498;2022-12-18T04:31:35;-6.00;99.90
8402;DHT22;4238;48.404;9.498;2022-12-18T04:34:03;-6.00;99.90
8402;DHT22;4238;48.404;9.498;2022-12-18T04:36:30;-5.90;99.90
8402;DHT22;4238;48.404;9.498;2022-12-18T04:38:57;-5.90;99.90
8402;DHT22;4238;48.404;9.498;2022-12-18T04:41:24;-6.10;99.90
8402;DHT22;4238;48.404;9.498;2022-12-18T04:43:50;-6.00;99.90
8402;DHT22;4238;48.404;9.498;2022-12-18T04:46:17;-6.00;99.90
8402;DHT22;4238;48.404;9.498;2022-12-18T04:48:45;-6.00;99.90
8402;DHT22;4238;48.404;9.498;2022-12-18T04:51:14;-6.00;99.90
8402;DHT22;4238;48.404;9.498;2022-12-18T04:53:41;-6.10;99.90
8402;DHT22;4238;48.404;9.498;2022-12-18T04:56:10;-6.00;99.90
8402;DHT22;4238;48.404;9.498;2022-12-18T04:58:39;-6.00;99.90
8402;DHT22;4238;48.404;9.498;2022-12-18T05:01:07;-6.00;99.90
8402;DHT22;4238;48.404;9.498;2022-12-18T05:03:34;-6.00;99.90
8402;DHT22;4238;48.404;9.498;2022-12-18T05:06:02;-5.90;99.90
8402;DHT22;4238;48.404;9.498;2022-12-18T05:08:30;-5.90;99.90
8402;DHT22;4238;48.404;9.498;2022-12-18T05:11:02;-5.90;99.90
8402;DHT22;4238;48.404;9.498;2022-12-18T05:13:30;-6.00;99.90
8402;DHT22;4238;48.404;9.498;2022-12-18T05:15:57;-6.10;99.90
8402;DHT22;4238;48.404;9.498;2022-12-18T05:18:25;-6.00;99.90
8402;DHT22;4238;48.404;9.498;2022-12-18T05:20:53;-6.00;99.90
8402;DHT22;4238;48.404;9.498;2022-12-18T05:23:21;-5.80;99.90
8402;DHT22;4238;48.404;9.498;2022-12-18T05:25:51;-5.90;99.90
8402;DHT22;4238;48.404;9.498;2022-12-18T05:28:18;-5.80;99.90
8402;DHT22;4238;48.404;9.498;2022-12-18T05:30:48;-5.80;99.90
8402;DHT22;4238;48.404;9.498;2022-12-18T05:33:16;-5.80;99.90
8402;DHT22;4238;48.404;9.498;2022-12-18T05:35:42;-5.80;99.90
8402;DHT22;4238;48.404;9.498;2022-12-18T05:38:09;-5.80;99.90
8402;DHT22;4238;48.404;9.498;2022-12-18T05:40:36;-5.90;99.90
8402;DHT22;4238;48.404;9.498;2022-12-18T05:43:05;-5.90;99.90
8402;DHT22;4238;48.404;9.498;2022-12-18T05:45:32;-5.90;99.90
8402;DHT22;4238;48.404;9.498;2022-12-18T05:47:59;-5.80;99.90
8402;DHT22;4238;48.404;9.498;2022-12-18T05:50:25;-5.90;99.90
8402;DHT22;4238;48.404;9.498;2022-12-18T05:52:52;-5.80;99.90
8402;DHT22;4238;48.404;9.498;2022-12-18T05:55:19;-5.70;99.90
8402;DHT22;4238;48.404;9.498;2022-12-18T05:57:46;-5.70;99.90
8402;DHT22;4238;48.404;9.498;2022-12-18T06:00:16;-5.80;99.90
8402;DHT22;4238;48.404;9.498;2022-12-18T06:02:46;-5.90;99.90
8402;DHT22;4238;48.404;9.498;2022-12-18T06:05:13;-5.80;99.90
8402;DHT22;4238;48.404;9.498;2022-12-18T06:07:40;-5.80;99.90
8402;DHT22;4238;48.404;9.498;2022-12-18T06:10:08;-5.70;99.90
8402;DHT22;4238;48.404;9.498;2022-12-18T06:12:35;-5.90;99.90
8402;DHT22;4238;48.404;9.498;2022-12-18T06:15:02;-6.00;99.90
8402;DHT22;4238;48.404;9.498;2022-12-18T06:17:31;-6.00;99.90
8402;DHT22;4238;48.404;9.498;2022-12-18T06:19:59;-6.00;99.90
8402;DHT22;4238;48.404;9.498;2022-12-18T06:22:27;-6.00;99.90
8402;DHT22;4238;48.404;9.498;2022-12-18T06:24:54;-5.90;99.90
8402;DHT22;4238;48.404;9.498;2022-12-18T06:27:21;-5.90;99.90
8402;DHT22;4238;48.404;9.498;2022-12-18T06:29:48;-6.00;99.90
8402;DHT22;4238;48.404;9.498;2022-12-18T06:32:15;-6.00;99.90
8402;DHT22;4238;48.404;9.498;2022-12-18T06:34:43;-5.90;99.90
8402;DHT22;4238;48.404;9.498;2022-12-18T06:37:10;-6.00;99.90
8402;DHT22;4238;48.404;9.498;2022-12-18T06:39:37;-5.80;99.90
8402;DHT22;4238;48.404;9.498;2022-12-18T06:42:04;-5.90;99.90
8402;DHT22;4238;48.404;9.498;2022-12-18T06:44:31;-5.90;99.90
8402;DHT22;4238;48.404;9.498;2022-12-18T06:46:58;-6.00;99.90
8402;DHT22;4238;48.404;9.498;2022-12-18T06:49:25;-6.00;99.90
8402;DHT22;4238;48.404;9.498;2022-12-18T06:51:53;-5.90;99.90
8402;DHT22;4238;48.404;9.498;2022-12-18T06:54:20;-6.00;99.90
8402;DHT22;4238;48.404;9.498;2022-12-18T06:56:47;-5.80;99.90
8402;DHT22;4238;48.404;9.498;2022-12-18T06:59:15;-5.70;99.90
8402;DHT22;4238;48.404;9.498;2022-12-18T07:01:42;-5.70;99.90
8402;DHT22;4238;48.404;9.498;2022-12-18T07:04:09;-5.60;99.90
8402;DHT22;4238;48.404;9.498;2022-12-18T07:06:36;-5.60;99.90
8402;DHT22;4238;48.404;9.498;2022-12-18T07:09:04;-5.70;99.90
8402;DHT22;4238;48.404;9.498;2022-12-18T07:11:32;-5.80;99.90
8402;DHT22;4238;48.404;9.498;2022-12-18T07:13:59;-5.80;99.90
8402;DHT22;4238;48.404;9.498;2022-12-18T07:16:26;-5.60;99.90
8402;DHT22;4238;48.404;9.498;2022-12-18T07:18:55;-5.60;99.90
8402;DHT22;4238;48.404;9.498;2022-12-18T07:21:23;-5.50;99.90
8402;DHT22;4238;48.404;9.498;2022-12-18T07:23:50;-5.60;99.90
8402;DHT22;4238;48.404;9.498;2022-12-18T07:26:20;-5.60;99.90
8402;DHT22;4238;48.404;9.498;2022-12-18T07:28:48;-5.60;99.90
8402;DHT22;4238;48.404;9.498;2022-12-18T07:31:18;-5.60;99.90
8402;DHT22;4238;48.404;9.498;2022-12-18T07:33:46;-5.50;99.90
8402;DHT22;4238;48.404;9.498;2022-12-18T07:36:13;-5.40;99.90
8402;DHT22;4238;48.404;9.498;2022-12-18T07:38:41;-5.50;99.90
8402;DHT22;4238;48.404;9.498;2022-12-18T07:41:09;-5.30;99.90
8402;DHT22;4238;48.404;9.498;2022-12-18T07:43:39;-5.30;99.90
8402;DHT22;4238;48.404;9.498;2022-12-18T07:46:07;-5.30;99.90
8402;DHT22;4238;48.404;9.498;2022-12-18T07:48:35;-5.40;99.90
8402;DHT22;4238;48.404;9.498;2022-12-18T07:51:02;-5.50;99.90
8402;DHT22;4238;48.404;9.498;2022-12-18T07:53:30;-5.30;99.90
8402;DHT22;4238;48.404;9.498;2022-12-18T07:55:57;-5.30;99.90
8402;DHT22;4238;48.404;9.498;2022-12-18T07:58:24;-5.30;99.90
8402;DHT22;4238;48.404;9.498;2022-12-18T08:00:53;-5.20;99.90
8402;DHT22;4238;48.404;9.498;2022-12-18T08:03:19;-5.20;99.90
8402;DHT22;4238;48.404;9.498;2022-12-18T08:05:46;-5.20;99.90
8402;DHT22;4238;48.404;9.498;2022-12-18T08:08:13;-5.20;99.90
8402;DHT22;4238;48.404;9.498;2022-12-18T08:10:40;-5.20;99.90
8402;DHT22;4238;48.404;9.498;2022-12-18T08:13:07;-5.20;99.90
8402;DHT22;4238;48.404;9.498;2022-12-18T08:15:34;-5.10;99.90
8402;DHT22;4238;48.404;9.498;2022-12-18T08:18:02;-5.00;99.90
8402;DHT22;4238;48.404;9.498;2022-12-18T08:20:29;-4.90;99.00
8402;DHT22;4238;48.404;9.498;2022-12-18T08:22:56;-5.00;99.80
8402;DHT22;4238;48.404;9.498;2022-12-18T08:25:24;-4.90;99.60
8402;DHT22;4238;48.404;9.498;2022-12-18T08:27:50;-4.90;95.70
8402;DHT22;4238;48.404;9.498;2022-12-18T08:30:17;-5.00;96.20
8402;DHT22;4238;48.404;9.498;2022-12-18T08:32:44;-4.90;99.90
8402;DHT22;4238;48.404;9.498;2022-12-18T08:35:13;-4.70;99.90
8402;DHT22;4238;48.404;9.498;2022-12-18T08:37:40;-4.90;94.00
8402;DHT22;4238;48.404;9.498;2022-12-18T08:40:08;-5.00;99.90
8402;DHT22;4238;48.404;9.498;2022-12-18T08:42:35;-4.90;97.70
8402;DHT22;4238;48.404;9.498;2022-12-18T08:45:19;-4.80;97.90
8402;DHT22;4238;48.404;9.498;2022-12-18T08:47:46;-4.80;97.80
8402;DHT22;4238;48.404;9.498;2022-12-18T08:50:14;-4.80;99.80
8402;DHT22;4238;48.404;9.498;2022-12-18T08:52:41;-4.70;97.40
8402;DHT22;4238;48.404;9.498;2022-12-18T08:55:09;-4.70;96.30
8402;DHT22;4238;48.404;9.498;2022-12-18T08:57:36;-4.70;93.30
8402;DHT22;4238;48.404;9.498;2022-12-18T09:00:03;-4.70;97.80
8402;DHT22;4238;48.404;9.498;2022-12-18T09:02:30;-4.50;99.50
8402;DHT22;4238;48.404;9.498;2022-12-18T09:04:57;-4.40;93.00
8402;DHT22;4238;48.404;9.498;2022-12-18T09:07:25;-4.30;86.50
8402;DHT22;4238;48.404;9.498;2022-12-18T09:09:52;-4.20;84.10
8402;DHT22;4238;48.404;9.498;2022-12-18T09:12:19;-4.50;66.80
8402;DHT22;4238;48.404;9.498;2022-12-18T09:14:46;-4.30;84.90
8402;DHT22;4238;48.404;9.498;2022-12-18T09:17:13;-4.40;77.50
8402;DHT22;4238;48.404;9.498;2022-12-18T09:19:40;-4.50;86.90
8402;DHT22;4238;48.404;9.498;2022-12-18T09:22:07;-4.30;90.70
8402;DHT22;4238;48.404;9.498;2022-12-18T09:24:36;-4.30;73.80
8402;DHT22;4238;48.404;9.498;2022-12-18T09:27:03;-4.40;80.20
8402;DHT22;4238;48.404;9.498;2022-12-18T09:29:30;-4.20;87.70
8402;DHT22;4238;48.404;9.498;2022-12-18T09:31:57;-4.30;71.00
8402;DHT22;4238;48.404;9.498;2022-12-18T09:34:24;-4.10;69.10
8402;DHT22;4238;48.404;9.498;2022-12-18T09:36:51;-4.00;70.80
8402;DHT22;4238;48.404;9.498;2022-12-18T09:39:18;-3.90;56.70
8402;DHT22;4238;48.404;9.498;2022-12-18T09:41:50;-3.80;57.40
8402;DHT22;4238;48.404;9.498;2022-12-18T09:44:24;-3.60;53.50
8402;DHT22;4238;48.404;9.498;2022-12-18T09:47:01;-3.50;40.60
8402;DHT22;4238;48.404;9.498;2022-12-18T09:49:40;-3.80;49.50
8402;DHT22;4238;48.404;9.498;2022-12-18T09:52:16;-3.60;64.60
8402;DHT22;4238;48.404;9.498;2022-12-18T09:54:47;-3.50;56.60
8402;DHT22;4238;48.404;9.498;2022-12-18T09:57:20;-3.30;46.20
8402;DHT22;4238;48.404;9.498;2022-12-18T09:59:51;-3.30;34.20
8402;DHT22;4238;48.404;9.498;2022-12-18T10:02:22;-3.50;40.50
8402;DHT22;4238;48.404;9.498;2022-12-18T10:04:58;-3.30;40.30
8402;DHT22;4238;48.404;9.498;2022-12-18T10:07:32;-3.30;38.10
8402;DHT22;4238;48.404;9.498;2022-12-18T10:10:07;-3.20;35.80
8402;DHT22;4238;48.404;9.498;2022-12-18T10:12:43;-3.30;33.20
8402;DHT22;4238;48.404;9.498;2022-12-18T10:15:19;-3.20;29.70
8402;DHT22;4238;48.404;9.498;2022-12-18T10:17:53;-3.20;23.20
8402;DHT22;4238;48.404;9.498;2022-12-18T10:20:27;-3.30;36.10
8402;DHT22;4238;48.404;9.498;2022-12-18T10:23:01;-3.30;37.90
8402;DHT22;4238;48.404;9.498;2022-12-18T10:25:34;-3.10;51.40
8402;DHT22;4238;48.404;9.498;2022-12-18T10:28:12;-3.00;11.90
8402;DHT22;4238;48.404;9.498;2022-12-18T10:30:40;-3.00;19.90
8402;DHT22;4238;48.404;9.498;2022-12-18T10:33:10;-2.80;28.90
8402;DHT22;4238;48.404;9.498;2022-12-18T10:35:41;-2.90;13.40
8402;DHT22;4238;48.404;9.498;2022-12-18T10:38:22;-2.90;28.70
8402;DHT22;4238;48.404;9.498;2022-12-18T10:40:52;-2.80;18.70
8402;DHT22;4238;48.404;9.498;2022-12-18T10:43:25;-3.00;25.20
8402;DHT22;4238;48.404;9.498;2022-12-18T10:46:01;-3.00;21.90
8402;DHT22;4238;48.404;9.498;2022-12-18T10:48:30;-3.00;27.30
8402;DHT22;4238;48.404;9.498;2022-12-18T10:50:57;-2.80;18.00
8402;DHT22;4238;48.404;9.498;2022-12-18T10:53:26;-2.60;3.90
8402;DHT22;4238;48.404;9.498;2022-12-18T10:55:55;-2.60;1.00
8402;DHT22;4238;48.404;9.498;2022-12-18T10:58:28;-2.60;1.00
8402;DHT22;4238;48.404;9.498;2022-12-18T11:01:08;-2.80;15.80
8402;DHT22;4238;48.404;9.498;2022-12-18T11:03:37;-2.70;12.60
8402;DHT22;4238;48.404;9.498;2022-12-18T11:06:06;-2.60;14.10
8402;DHT22;4238;48.404;9.498;2022-12-18T11:08:34;-2.60;7.60
8402;DHT22;4238;48.404;9.498;2022-12-18T11:11:01;-2.60;3.30
8402;DHT22;4238;48.404;9.498;2022-12-18T11:13:30;-2.40;6.70
8402;DHT22;4238;48.404;9.498;2022-12-18T11:15:58;-2.30;1.00
8402;DHT22;4238;48.404;9.498;2022-12-18T11:18:27;-2.30;1.00
8402;DHT22;4238;48.404;9.498;2022-12-18T11:20:56;-2.50;1.00
8402;DHT22;4238;48.404;9.498;2022-12-18T11:23:25;-2.80;1.00
8402;DHT22;4238;48.404;9.498;2022-12-18T11:25:55;-3.00;3.10
8402;DHT22;4238;48.404;9.498;2022-12-18T11:28:35;-3.20;7.00
8402;DHT22;4238;48.404;9.498;2022-12-18T11:31:18;-3.30;33.90
8402;DHT22;4238;48.404;9.498;2022-12-18T11:33:49;-2.80;22.80
8402;DHT22;4238;48.404;9.498;2022-12-18T11:36:17;-2.80;7.30
8402;DHT22;4238;48.404;9.498;2022-12-18T11:38:45;-2.90;5.10
8402;DHT22;4238;48.404;9.498;2022-12-18T11:41:19;-2.90;19.20
8402;DHT22;4238;48.404;9.498;2022-12-18T11:43:54;-2.70;4.40
8402;DHT22;4238;48.404;9.498;2022-12-18T11:46:27;-2.70;1.00
8402;DHT22;4238;48.404;9.498;2022-12-18T11:49:03;-2.70;1.10
8402;DHT22;4238;48.404;9.498;2022-12-18T11:51:37;-2.70;12.20
8402;DHT22;4238;48.404;9.498;2022-12-18T11:54:10;-2.70;12.20
8402;DHT22;4238;48.404;9.498;2022-12-18T11:56:43;-2.60;16.70
8402;DHT22;4238;48.404;9.498;2022-12-18T11:59:19;-2.50;1.00
8402;DHT22;4238;48.404;9.498;2022-12-18T12:01:54;-2.80;1.00
8402;DHT22;4238;48.404;9.498;2022-12-18T12:04:48;-3.00;8.80
8402;DHT22;4238;48.404;9.498;2022-12-18T12:07:32;-2.90;30.20
8402;DHT22;4238;48.404;9.498;2022-12-18T12:10:14;-2.70;20.80
8402;DHT22;4238;48.404;9.498;2022-12-18T12:12:55;-3.30;19.20
8402;DHT22;4238;48.404;9.498;2022-12-18T12:15:34;-3.30;41.70
8402;DHT22;4238;48.404;9.498;2022-12-18T12:18:09;-3.10;43.40
8402;DHT22;4238;48.404;9.498;2022-12-18T12:20:49;-3.00;43.10
8402;DHT22;4238;48.404;9.498;2022-12-18T12:23:26;-3.10;25.90
8402;DHT22;4238;48.404;9.498;2022-12-18T12:25:59;-3.10;43.10
8402;DHT22;4238;48.404;9.498;2022-12-18T12:28:59;-3.00;45.20
8402;DHT22;4238;48.404;9.498;2022-12-18T12:31:38;-2.90;33.50
8402;DHT22;4238;48.404;9.498;2022-12-18T12:34:16;-2.70;26.60
8402;DHT22;4238;48.404;9.498;2022-12-18T12:36:53;-2.50;9.00
8402;DHT22;4238;48.404;9.498;2022-12-18T12:39:27;-2.60;6.30
8402;DHT22;4238;48.404;9.498;2022-12-18T12:41:55;-2.80;17.20
8402;DHT22;4238;48.404;9.498;2022-12-18T12:44:43;-2.90;27.50
8402;DHT22;4238;48.404;9.498;2022-12-18T12:47:16;-2.90;25.80
8402;DHT22;4238;48.404;9.498;2022-12-18T12:49:44;-2.80;20.70
8402;DHT22;4238;48.404;9.498;2022-12-18T12:52:16;-2.90;30.20
8402;DHT22;4238;48.404;9.498;2022-12-18T12:54:44;-3.00;29.10
8402;DHT22;4238;48.404;9.498;2022-12-18T12:57:15;-2.90;23.20
8402;DHT22;4238;48.404;9.498;2022-12-18T12:59:49;-3.00;7.00
8402;DHT22;4238;48.404;9.498;2022-12-18T13:02:23;-3.10;6.20
8402;DHT22;4238;48.404;9.498;2022-12-18T13:04:59;-3.20;26.10
8402;DHT22;4238;48.404;9.498;2022-12-18T13:07:34;-3.30;48.50
8402;DHT22;4238;48.404;9.498;2022-12-18T13:10:19;-3.10;44.90
8402;DHT22;4238;48.404;9.498;2022-12-18T13:12:53;-3.10;34.70
8402;DHT22;4238;48.404;9.498;2022-12-18T13:15:25;-3.20;34.80
8402;DHT22;4238;48.404;9.498;2022-12-18T13:18:20;-3.10;25.40
8402;DHT22;4238;48.404;9.498;2022-12-18T13:20:50;-3.30;30.10
8402;DHT22;4238;48.404;9.498;2022-12-18T13:23:33;-3.10;38.20
8402;DHT22;4238;48.404;9.498;2022-12-18T13:29:03;-3.10;17.40
8402;DHT22;4238;48.404;9.498;2022-12-18T13:34:34;-3.50;38.20
8402;DHT22;4238;48.404;9.498;2022-12-18T13:43:41;-3.20;34.50
8402;DHT22;4238;48.404;9.498;2022-12-18T13:46:25;-3.20;28.70
8402;DHT22;4238;48.404;9.498;2022-12-18T13:49:00;-3.20;25.00
8402;DHT22;4238;48.404;9.498;2022-12-18T13:51:28;-3.30;36.90
8402;DHT22;4238;48.404;9.498;2022-12-18T13:53:58;-3.40;37.80
8402;DHT22;4238;48.404;9.498;2022-12-18T13:56:28;-3.40;49.20
8402;DHT22;4238;48.404;9.498;2022-12-18T13:59:32;-3.30;26.40
8402;DHT22;4238;48.404;9.498;2022-12-18T14:02:09;-3.20;15.50
8402;DHT22;4238;48.404;9.498;2022-12-18T14:04:36;-3.30;5.60
8402;DHT22;4238;48.404;9.498;2022-12-18T14:07:05;-3.30;9.40
8402;DHT22;4238;48.404;9.498;2022-12-18T14:09:36;-3.50;19.00
8402;DHT22;4238;48.404;9.498;2022-12-18T14:12:04;-3.90;25.70
8402;DHT22;4238;48.404;9.498;2022-12-18T14:14:51;-3.90;45.00
8402;DHT22;4238;48.404;9.498;2022-12-18T14:17:20;-3.70;48.50
8402;DHT22;4238;48.404;9.498;2022-12-18T14:19:48;-3.60;29.10
8402;DHT22;4238;48.404;9.498;2022-12-18T14:22:18;-3.80;28.20
8402;DHT22;4238;48.404;9.498;2022-12-18T14:24:45;-4.00;31.90
8402;DHT22;4238;48.404;9.498;2022-12-18T14:27:22;-4.00;52.30
8402;DHT22;4238;48.404;9.498;2022-12-18T14:29:49;-4.10;43.80
8402;DHT22;4238;48.404;9.498;2022-12-18T14:32:17;-4.20;53.70
8402;DHT22;4238;48.404;9.498;2022-12-18T14:34:47;-4.10;67.30
8402;DHT22;4238;48.404;9.498;2022-12-18T14:37:16;-4.20;51.80
8402;DHT22;4238;48.404;9.498;2022-12-18T14:39:58;-4.20;57.80
8402;DHT22;4238;48.404;9.498;2022-12-18T14:42:25;-4.20;62.80
8402;DHT22;4238;48.404;9.498;2022-12-18T14:47:53;-3.90;46.40
8402;DHT22;4238;48.404;9.498;2022-12-18T14:50:22;-4.10;47.80
8402;DHT22;4238;48.404;9.498;2022-12-18T14:52:49;-4.30;54.80
8402;DHT22;4238;48.404;9.498;2022-12-18T14:55:17;-4.40;58.80
8402;DHT22;4238;48.404;9.498;2022-12-18T14:57:44;-4.30;51.40
8402;DHT22;4238;48.404;9.498;2022-12-18T15:00:17;-4.30;49.20
8402;DHT22;4238;48.404;9.498;2022-12-18T15:02:46;-4.40;51.20
8402;DHT22;4238;48.404;9.498;2022-12-18T15:05:18;-4.50;59.30
8402;DHT22;4238;48.404;9.498;2022-12-18T15:07:48;-4.60;67.40
8402;DHT22;4238;48.404;9.498;2022-12-18T15:10:17;-4.60;72.90
8402;DHT22;4238;48.404;9.498;2022-12-18T15:12:46;-4.60;61.90
8402;DHT22;4238;48.404;9.498;2022-12-18T15:15:47;-4.60;73.00
8402;DHT22;4238;48.404;9.498;2022-12-18T15:18:16;-4.50;70.20
8402;DHT22;4238;48.404;9.498;2022-12-18T15:20:46;-4.60;55.70
8402;DHT22;4238;48.404;9.498;2022-12-18T15:23:18;-4.70;60.60
8402;DHT22;4238;48.404;9.498;2022-12-18T15:25:47;-4.80;72.20
8402;DHT22;4238;48.404;9.498;2022-12-18T15:28:23;-4.80;74.80
8402;DHT22;4238;48.404;9.498;2022-12-18T15:31:05;-4.80;68.70
8402;DHT22;4238;48.404;9.498;2022-12-18T15:33:34;-4.90;78.90
8402;DHT22;4238;48.404;9.498;2022-12-18T15:36:03;-4.90;80.30
8402;DHT22;4238;48.404;9.498;2022-12-18T15:38:32;-4.80;81.90
8402;DHT22;4238;48.404;9.498;2022-12-18T15:40:59;-4.90;70.30
8402;DHT22;4238;48.404;9.498;2022-12-18T15:43:26;-5.00;76.00
8402;DHT22;4238;48.404;9.498;2022-12-18T15:46:04;-4.80;74.50
8402;DHT22;4238;48.404;9.498;2022-12-18T15:48:33;-4.80;64.00
8402;DHT22;4238;48.404;9.498;2022-12-18T15:51:00;-4.90;66.90
8402;DHT22;4238;48.404;9.498;2022-12-18T15:53:30;-4.90;70.40
8402;DHT22;4238;48.404;9.498;2022-12-18T15:55:58;-5.00;79.50
8402;DHT22;4238;48.404;9.498;2022-12-18T15:58:43;-5.20;80.00
8402;DHT22;4238;48.404;9.498;2022-12-18T16:01:10;-5.20;90.20
8402;DHT22;4238;48.404;9.498;2022-12-18T16:03:38;-5.40;91.80
8402;DHT22;4238;48.404;9.498;2022-12-18T16:06:05;-5.50;96.30
8402;DHT22;4238;48.404;9.498;2022-12-18T16:08:32;-5.40;98.60
8402;DHT22;4238;48.404;9.498;2022-12-18T16:11:01;-5.40;96.20
8402;DHT22;4238;48.404;9.498;2022-12-18T16:13:28;-5.40;97.50
8402;DHT22;4238;48.404;9.498;2022-12-18T16:15:55;-5.40;93.90
8402;DHT22;4238;48.404;9.498;2022-12-18T16:18:21;-5.30;91.80
8402;DHT22;4238;48.404;9.498;2022-12-18T16:20:48;-5.30;91.40
8402;DHT22;4238;48.404;9.498;2022-12-18T16:23:15;-5.10;90.00
8402;DHT22;4238;48.404;9.498;2022-12-18T16:25:42;-5.00;81.30
8402;DHT22;4238;48.404;9.498;2022-12-18T16:28:10;-5.10;73.50
8402;DHT22;4238;48.404;9.498;2022-12-18T16:30:37;-5.30;87.50
8402;DHT22;4238;48.404;9.498;2022-12-18T16:33:05;-5.20;91.80
8402;DHT22;4238;48.404;9.498;2022-12-18T16:35:32;-5.20;92.50
8402;DHT22;4238;48.404;9.498;2022-12-18T16:37:59;-5.20;85.80